sensor_id;sensor_type;location;lat;lon;timestamp;P1;durP1;ratioP1;P2;durP2;ratioP2
44137;SDS011;29800;55.942;37.314;2023-05-23T00:02:01;10.77;;;5.38;;
44137;SDS011;29800;55.942;37.314;2023-05-23T00:04:33;7.28;;;4.93;;
44137;SDS011;29800;55.942;37.314;2023-05-23T00:07:02;7.85;;;5.07;;
44137;SDS011;29800;55.942;37.314;2023-05-23T00:09:28;10.13;;;5.28;;
44137;SDS011;29800;55.942;37.314;2023-05-23T00:11:55;11.18;;;5.13;;
44137;SDS011;29800;55.942;37.314;2023-05-23T00:14:21;9.95;;;5.47;;
44137;SDS011;29800;55.942;37.314;2023-05-23T00:16:48;9.73;;;5.05;;
44137;SDS011;29800;55.942;37.314;2023-05-23T00:19:14;22.05;;;5.78;;
44137;SDS011;29800;55.942;37.314;2023-05-23T00:21:41;11.15;;;5.88;;
44137;SDS011;29800;55.942;37.314;2023-05-23T00:24:08;9.23;;;5.07;;
44137;SDS011;29800;55.942;37.314;2023-05-23T00:26:35;9.50;;;4.95;;
44137;SDS011;29800;55.942;37.314;2023-05-23T00:29:02;10.65;;;5.50;;
44137;SDS011;29800;55.942;37.314;2023-05-23T00:31:28;13.95;;;5.32;;
44137;SDS011;29800;55.942;37.314;2023-05-23T00:33:56;10.07;;;5.35;;
44137;SDS011;29800;55.942;37.314;2023-05-23T00:36:22;8.27;;;5.35;;
44137;SDS011;29800;55.942;37.314;2023-05-23T00:38:49;10.45;;;5.43;;
44137;SDS011;29800;55.942;37.314;2023-05-23T00:41:16;10.25;;;5.10;;
44137;SDS011;29800;55.942;37.314;2023-05-23T00:43:46;9.23;;;5.32;;
44137;SDS011;29800;55.942;37.314;2023-05-23T00:46:12;8.18;;;5.68;;
44137;SDS011;29800;55.942;37.314;2023-05-23T00:48:39;9.13;;;6.40;;
44137;SDS011;29800;55.942;37.314;2023-05-23T00:51:05;13.52;;;7.32;;
44137;SDS011;29800;55.942;37.314;2023-05-23T00:53:32;10.93;;;6.32;;
44137;SDS011;29800;55.942;37.314;2023-05-23T00:55:59;8.02;;;5.68;;
44137;SDS011;29800;55.942;37.314;2023-05-23T00:58:27;12.00;;;5.65;;
44137;SDS011;29800;55.942;37.314;2023-05-23T01:00:53;9.95;;;5.63;;
44137;SDS011;29800;55.942;37.314;2023-05-23T01:03:20;14.10;;;5.47;;
44137;SDS011;29800;55.942;37.314;2023-05-23T01:05:48;10.82;;;5.10;;
44137;SDS011;29800;55.942;37.314;2023-05-23T01:08:14;7.32;;;5.20;;
44137;SDS011;29800;55.942;37.314;2023-05-23T01:10:40;8.75;;;5.35;;
44137;SDS011;29800;55.942;37.314;2023-05-23T01:20:56;11.02;;;6.03;;
44137;SDS011;29800;55.942;37.314;2023-05-23T01:23:41;12.27;;;5.30;;
44137;SDS011;29800;55.942;37.314;2023-05-23T01:29:25;8.75;;;5.63;;
44137;SDS011;29800;55.942;37.314;2023-05-23T01:31:57;9.02;;;5.68;;
44137;SDS011;29800;55.942;37.314;2023-05-23T01:34:25;9.35;;;5.63;;
44137;SDS011;29800;55.942;37.314;2023-05-23T01:36:54;10.77;;;5.20;;
44137;SDS011;29800;55.942;37.314;2023-05-23T01:39:21;10.65;;;6.40;;
44137;SDS011;29800;55.942;37.314;2023-05-23T01:41:49;9.10;;;5.95;;
44137;SDS011;29800;55.942;37.314;2023-05-23T01:44:18;10.15;;;5.75;;
44137;SDS011;29800;55.942;37.314;2023-05-23T01:46:46;10.35;;;5.68;;
44137;SDS011;29800;55.942;37.314;2023-05-23T01:49:13;10.43;;;5.50;;
44137;SDS011;29800;55.942;37.314;2023-05-23T01:51:42;10.10;;;5.75;;
44137;SDS011;29800;55.942;37.314;2023-05-23T01:54:11;10.32;;;5.97;;
44137;SDS011;29800;55.942;37.314;2023-05-23T01:56:39;10.27;;;5.70;;
44137;SDS011;29800;55.942;37.314;2023-05-23T01:59:05;12.85;;;5.72;;
44137;SDS011;29800;55.942;37.314;2023-05-23T02:01:32;8.25;;;5.65;;
44137;SDS011;29800;55.942;37.314;2023-05-23T02:03:59;10.10;;;6.03;;
44137;SDS011;29800;55.942;37.314;2023-05-23T02:06:25;10.68;;;5.88;;
44137;SDS011;29800;55.942;37.314;2023-05-23T02:08:51;9.90;;;6.25;;
44137;SDS011;29800;55.942;37.314;2023-05-23T02:11:18;10.13;;;6.38;;
44137;SDS011;29800;55.942;37.314;2023-05-23T02:13:44;9.38;;;6.63;;
44137;SDS011;29800;55.942;37.314;2023-05-23T02:16:10;9.57;;;5.88;;
44137;SDS011;29800;55.942;37.314;2023-05-23T02:18:38;8.07;;;4.78;;
44137;SDS011;29800;55.942;37.314;2023-05-23T02:21:05;10.68;;;6.10;;
44137;SDS011;29800;55.942;37.314;2023-05-23T02:23:31;11.02;;;6.05;;
44137;SDS011;29800;55.942;37.314;2023-05-23T02:25:57;8.07;;;5.88;;
44137;SDS011;29800;55.942;37.314;2023-05-23T02:28:23;10.82;;;6.30;;
44137;SDS011;29800;55.942;37.314;2023-05-23T02:30:50;12.35;;;5.90;;
44137;SDS011;29800;55.942;37.314;2023-05-23T02:33:16;9.40;;;6.28;;
44137;SDS011;29800;55.942;37.314;2023-05-23T02:35:43;9.77;;;6.28;;
44137;SDS011;29800;55.942;37.314;2023-05-23T02:38:10;13.43;;;6.43;;
44137;SDS011;29800;55.942;37.314;2023-05-23T02:40:39;13.65;;;5.80;;
44137;SDS011;29800;55.942;37.314;2023-05-23T02:43:06;12.50;;;5.68;;
44137;SDS011;29800;55.942;37.314;2023-05-23T02:45:32;10.63;;;5.70;;
44137;SDS011;29800;55.942;37.314;2023-05-23T02:47:58;10.88;;;6.18;;
44137;SDS011;29800;55.942;37.314;2023-05-23T02:50:25;11.82;;;5.95;;
44137;SDS011;29800;55.942;37.314;2023-05-23T02:52:51;12.38;;;6.13;;
44137;SDS011;29800;55.942;37.314;2023-05-23T02:55:18;10.88;;;6.28;;
44137;SDS011;29800;55.942;37.314;2023-05-23T02:57:46;12.38;;;6.65;;
44137;SDS011;29800;55.942;37.314;2023-05-23T03:00:13;11.68;;;5.85;;
44137;SDS011;29800;55.942;37.314;2023-05-23T03:02:43;12.60;;;6.40;;
44137;SDS011;29800;55.942;37.314;2023-05-23T03:05:09;13.07;;;5.97;;
44137;SDS011;29800;55.942;37.314;2023-05-23T03:07:35;9.98;;;6.05;;
44137;SDS011;29800;55.942;37.314;2023-05-23T03:10:01;10.43;;;6.03;;
44137;SDS011;29800;55.942;37.314;2023-05-23T03:12:30;9.77;;;6.07;;
44137;SDS011;29800;55.942;37.314;2023-05-23T03:14:56;9.52;;;6.47;;
44137;SDS011;29800;55.942;37.314;2023-05-23T03:17:24;12.30;;;6.53;;
44137;SDS011;29800;55.942;37.314;2023-05-23T03:19:50;13.27;;;6.45;;
44137;SDS011;29800;55.942;37.314;2023-05-23T03:22:18;14.70;;;6.43;;
44137;SDS011;29800;55.942;37.314;2023-05-23T03:24:45;16.17;;;5.80;;
44137;SDS011;29800;55.942;37.314;2023-05-23T03:27:11;9.73;;;6.22;;
44137;SDS011;29800;55.942;37.314;2023-05-23T03:29:38;12.27;;;5.40;;
44137;SDS011;29800;55.942;37.314;2023-05-23T03:32:04;12.13;;;6.03;;
44137;SDS011;29800;55.942;37.314;2023-05-23T03:34:31;13.65;;;5.70;;
44137;SDS011;29800;55.942;37.314;2023-05-23T03:36:59;12.20;;;4.35;;
44137;SDS011;29800;55.942;37.314;2023-05-23T03:39:25;10.80;;;4.13;;
44137;SDS011;29800;55.942;37.314;2023-05-23T03:41:51;6.57;;;3.90;;
44137;SDS011;29800;55.942;37.314;2023-05-23T03:44:18;8.32;;;3.63;;
44137;SDS011;29800;55.942;37.314;2023-05-23T03:46:44;11.48;;;3.80;;
44137;SDS011;29800;55.942;37.314;2023-05-23T03:49:11;6.65;;;3.83;;
44137;SDS011;29800;55.942;37.314;2023-05-23T03:51:37;8.70;;;4.00;;
44137;SDS011;29800;55.942;37.314;2023-05-23T03:54:04;8.20;;;3.67;;
44137;SDS011;29800;55.942;37.314;2023-05-23T03:56:30;12.20;;;4.30;;
44137;SDS011;29800;55.942;37.314;2023-05-23T03:58:56;6.95;;;3.70;;
44137;SDS011;29800;55.942;37.314;2023-05-23T04:01:22;6.45;;;3.30;;
44137;SDS011;29800;55.942;37.314;2023-05-23T04:03:49;5.80;;;3.13;;
44137;SDS011;29800;55.942;37.314;2023-05-23T04:06:17;6.97;;;3.58;;
44137;SDS011;29800;55.942;37.314;2023-05-23T04:08:45;7.93;;;3.78;;
44137;SDS011;29800;55.942;37.314;2023-05-23T04:11:11;9.75;;;4.18;;
44137;SDS011;29800;55.942;37.314;2023-05-23T04:13:40;7.43;;;3.50;;
44137;SDS011;29800;55.942;37.314;2023-05-23T04:16:09;5.63;;;3.80;;
44137;SDS011;29800;55.942;37.314;2023-05-23T04:18:35;5.32;;;3.42;;
44137;SDS011;29800;55.942;37.314;2023-05-23T04:21:05;7.57;;;3.38;;
44137;SDS011;29800;55.942;37.314;2023-05-23T04:23:36;11.38;;;3.53;;
44137;SDS011;29800;55.942;37.314;2023-05-23T04:26:03;8.52;;;3.70;;
44137;SDS011;29800;55.942;37.314;2023-05-23T04:28:34;6.28;;;3.60;;
44137;SDS011;29800;55.942;37.314;2023-05-23T04:31:03;6.03;;;3.58;;
44137;SDS011;29800;55.942;37.314;2023-05-23T04:33:32;6.57;;;3.67;;
44137;SDS011;29800;55.942;37.314;2023-05-23T04:36:02;8.32;;;3.63;;
44137;SDS011;29800;55.942;37.314;2023-05-23T04:38:30;6.93;;;3.50;;
44137;SDS011;29800;55.942;37.314;2023-05-23T04:40:57;6.03;;;3.63;;
44137;SDS011;29800;55.942;37.314;2023-05-23T04:43:59;6.32;;;3.63;;
44137;SDS011;29800;55.942;37.314;2023-05-23T04:46:37;9.57;;;5.35;;
44137;SDS011;29800;55.942;37.314;2023-05-23T04:49:15;11.27;;;5.18;;
44137;SDS011;29800;55.942;37.314;2023-05-23T04:51:42;8.48;;;5.03;;
44137;SDS011;29800;55.942;37.314;2023-05-23T04:54:23;7.40;;;4.20;;
44137;SDS011;29800;55.942;37.314;2023-05-23T04:56:49;7.65;;;4.13;;
44137;SDS011;29800;55.942;37.314;2023-05-23T04:59:18;9.07;;;3.80;;
44137;SDS011;29800;55.942;37.314;2023-05-23T05:01:44;8.63;;;4.10;;
44137;SDS011;29800;55.942;37.314;2023-05-23T05:04:11;10.93;;;4.07;;
44137;SDS011;29800;55.942;37.314;2023-05-23T05:06:39;12.32;;;4.28;;
44137;SDS011;29800;55.942;37.314;2023-05-23T05:09:07;12.32;;;3.97;;
44137;SDS011;29800;55.942;37.314;2023-05-23T05:11:34;6.68;;;3.70;;
44137;SDS011;29800;55.942;37.314;2023-05-23T05:14:02;9.93;;;4.00;;
44137;SDS011;29800;55.942;37.314;2023-05-23T05:16:28;10.32;;;4.60;;
44137;SDS011;29800;55.942;37.314;2023-05-23T05:18:54;13.07;;;4.20;;
44137;SDS011;29800;55.942;37.314;2023-05-23T05:21:21;8.93;;;4.63;;
44137;SDS011;29800;55.942;37.314;2023-05-23T05:23:48;8.65;;;4.25;;
44137;SDS011;29800;55.942;37.314;2023-05-23T05:26:16;7.60;;;4.20;;
44137;SDS011;29800;55.942;37.314;2023-05-23T05:28:42;7.90;;;4.03;;
44137;SDS011;29800;55.942;37.314;2023-05-23T05:31:09;6.53;;;3.67;;
44137;SDS011;29800;55.942;37.314;2023-05-23T05:33:40;6.53;;;3.60;;
44137;SDS011;29800;55.942;37.314;2023-05-23T05:36:15;10.60;;;4.28;;
44137;SDS011;29800;55.942;37.314;2023-05-23T05:38:43;9.57;;;4.10;;
44137;SDS011;29800;55.942;37.314;2023-05-23T05:41:09;9.90;;;4.30;;
44137;SDS011;29800;55.942;37.314;2023-05-23T05:43:41;17.65;;;6.30;;
44137;SDS011;29800;55.942;37.314;2023-05-23T05:46:07;20.88;;;7.03;;
44137;SDS011;29800;55.942;37.314;2023-05-23T05:48:35;12.85;;;6.85;;
44137;SDS011;29800;55.942;37.314;2023-05-23T05:51:06;13.18;;;6.82;;
44137;SDS011;29800;55.942;37.314;2023-05-23T05:53:33;11.98;;;6.35;;
44137;SDS011;29800;55.942;37.314;2023-05-23T05:56:00;14.35;;;5.18;;
44137;SDS011;29800;55.942;37.314;2023-05-23T05:58:28;21.15;;;7.40;;
44137;SDS011;29800;55.942;37.314;2023-05-23T06:01:00;16.95;;;7.13;;
44137;SDS011;29800;55.942;37.314;2023-05-23T06:03:27;12.43;;;6.88;;
44137;SDS011;29800;55.942;37.314;2023-05-23T06:05:54;14.02;;;6.50;;
44137;SDS011;29800;55.942;37.314;2023-05-23T06:08:21;17.05;;;7.07;;
44137;SDS011;29800;55.942;37.314;2023-05-23T06:10:48;19.42;;;6.95;;
44137;SDS011;29800;55.942;37.314;2023-05-23T06:13:16;19.88;;;6.80;;
44137;SDS011;29800;55.942;37.314;2023-05-23T06:15:46;16.75;;;6.47;;
44137;SDS011;29800;55.942;37.314;2023-05-23T06:18:13;19.50;;;6.60;;
44137;SDS011;29800;55.942;37.314;2023-05-23T06:20:39;15.65;;;6.60;;
44137;SDS011;29800;55.942;37.314;2023-05-23T06:23:10;14.43;;;6.82;;
44137;SDS011;29800;55.942;37.314;2023-05-23T06:25:38;18.45;;;6.85;;
44137;SDS011;29800;55.942;37.314;2023-05-23T06:28:05;16.83;;;6.57;;
44137;SDS011;29800;55.942;37.314;2023-05-23T06:30:32;18.63;;;6.70;;
44137;SDS011;29800;55.942;37.314;2023-05-23T06:33:01;18.98;;;7.13;;
44137;SDS011;29800;55.942;37.314;2023-05-23T06:35:27;12.88;;;6.10;;
44137;SDS011;29800;55.942;37.314;2023-05-23T06:37:53;13.23;;;6.50;;
44137;SDS011;29800;55.942;37.314;2023-05-23T06:40:20;12.55;;;6.57;;
44137;SDS011;29800;55.942;37.314;2023-05-23T06:42:47;15.02;;;6.57;;
44137;SDS011;29800;55.942;37.314;2023-05-23T06:45:22;13.73;;;6.55;;
44137;SDS011;29800;55.942;37.314;2023-05-23T06:47:49;13.90;;;6.78;;
44137;SDS011;29800;55.942;37.314;2023-05-23T06:50:16;17.02;;;6.22;;
44137;SDS011;29800;55.942;37.314;2023-05-23T06:52:48;15.30;;;6.68;;
44137;SDS011;29800;55.942;37.314;2023-05-23T06:55:15;15.48;;;5.97;;
44137;SDS011;29800;55.942;37.314;2023-05-23T06:57:45;16.45;;;6.75;;
44137;SDS011;29800;55.942;37.314;2023-05-23T07:00:12;16.30;;;6.55;;
44137;SDS011;29800;55.942;37.314;2023-05-23T07:02:49;11.43;;;5.72;;
44137;SDS011;29800;55.942;37.314;2023-05-23T07:05:19;14.65;;;6.03;;
44137;SDS011;29800;55.942;37.314;2023-05-23T07:07:49;14.35;;;5.68;;
44137;SDS011;29800;55.942;37.314;2023-05-23T07:10:16;19.38;;;5.72;;
44137;SDS011;29800;55.942;37.314;2023-05-23T07:12:46;17.98;;;5.82;;
44137;SDS011;29800;55.942;37.314;2023-05-23T07:15:14;15.65;;;5.22;;
44137;SDS011;29800;55.942;37.314;2023-05-23T07:17:52;12.38;;;5.38;;
44137;SDS011;29800;55.942;37.314;2023-05-23T07:20:18;12.07;;;5.22;;
44137;SDS011;29800;55.942;37.314;2023-05-23T07:22:49;13.20;;;4.93;;
44137;SDS011;29800;55.942;37.314;2023-05-23T07:25:17;16.08;;;5.38;;
44137;SDS011;29800;55.942;37.314;2023-05-23T07:27:43;11.70;;;4.57;;
44137;SDS011;29800;55.942;37.314;2023-05-23T07:30:10;12.48;;;4.38;;
44137;SDS011;29800;55.942;37.314;2023-05-23T07:32:37;8.75;;;4.28;;
44137;SDS011;29800;55.942;37.314;2023-05-23T07:35:12;13.90;;;4.95;;
44137;SDS011;29800;55.942;37.314;2023-05-23T07:37:39;11.68;;;4.60;;
44137;SDS011;29800;55.942;37.314;2023-05-23T07:40:06;9.70;;;4.38;;
44137;SDS011;29800;55.942;37.314;2023-05-23T07:42:34;13.65;;;5.05;;
44137;SDS011;29800;55.942;37.314;2023-05-23T07:45:00;10.32;;;4.70;;
44137;SDS011;29800;55.942;37.314;2023-05-23T07:47:30;8.20;;;4.07;;
44137;SDS011;29800;55.942;37.314;2023-05-23T07:49:56;8.93;;;4.82;;
44137;SDS011;29800;55.942;37.314;2023-05-23T07:52:23;10.77;;;4.40;;
44137;SDS011;29800;55.942;37.314;2023-05-23T07:54:50;11.60;;;4.43;;
44137;SDS011;29800;55.942;37.314;2023-05-23T07:57:16;11.32;;;4.10;;
44137;SDS011;29800;55.942;37.314;2023-05-23T07:59:43;9.00;;;3.47;;
44137;SDS011;29800;55.942;37.314;2023-05-23T08:02:10;13.82;;;3.80;;
44137;SDS011;29800;55.942;37.314;2023-05-23T08:04:38;11.57;;;3.83;;
44137;SDS011;29800;55.942;37.314;2023-05-23T08:07:05;7.78;;;3.80;;
44137;SDS011;29800;55.942;37.314;2023-05-23T08:09:42;10.95;;;3.75;;
44137;SDS011;29800;55.942;37.314;2023-05-23T08:12:12;15.15;;;3.60;;
44137;SDS011;29800;55.942;37.314;2023-05-23T08:14:39;8.02;;;3.42;;
44137;SDS011;29800;55.942;37.314;2023-05-23T08:17:17;9.32;;;3.63;;
44137;SDS011;29800;55.942;37.314;2023-05-23T08:19:45;7.28;;;3.40;;
44137;SDS011;29800;55.942;37.314;2023-05-23T08:22:11;5.80;;;3.10;;
44137;SDS011;29800;55.942;37.314;2023-05-23T08:24:37;9.75;;;3.30;;
44137;SDS011;29800;55.942;37.314;2023-05-23T08:27:03;9.93;;;3.22;;
44137;SDS011;29800;55.942;37.314;2023-05-23T08:29:33;6.18;;;2.70;;
44137;SDS011;29800;55.942;37.314;2023-05-23T08:32:01;6.70;;;2.75;;
44137;SDS011;29800;55.942;37.314;2023-05-23T08:34:27;7.28;;;2.90;;
44137;SDS011;29800;55.942;37.314;2023-05-23T08:36:54;9.52;;;3.25;;
44137;SDS011;29800;55.942;37.314;2023-05-23T08:39:20;6.75;;;3.05;;
44137;SDS011;29800;55.942;37.314;2023-05-23T08:41:56;6.07;;;3.00;;
44137;SDS011;29800;55.942;37.314;2023-05-23T08:44:22;11.60;;;3.58;;
44137;SDS011;29800;55.942;37.314;2023-05-23T08:46:54;14.13;;;3.50;;
44137;SDS011;29800;55.942;37.314;2023-05-23T08:49:55;10.82;;;3.22;;
44137;SDS011;29800;55.942;37.314;2023-05-23T08:52:24;6.22;;;2.70;;
44137;SDS011;29800;55.942;37.314;2023-05-23T08:54:57;8.50;;;2.88;;
44137;SDS011;29800;55.942;37.314;2023-05-23T08:57:26;7.70;;;3.25;;
44137;SDS011;29800;55.942;37.314;2023-05-23T08:59:59;10.35;;;3.10;;
44137;SDS011;29800;55.942;37.314;2023-05-23T09:02:30;7.25;;;2.88;;
44137;SDS011;29800;55.942;37.314;2023-05-23T09:05:08;10.30;;;3.40;;
44137;SDS011;29800;55.942;37.314;2023-05-23T09:07:36;8.23;;;3.53;;
44137;SDS011;29800;55.942;37.314;2023-05-23T09:10:04;6.53;;;2.88;;
44137;SDS011;29800;55.942;37.314;2023-05-23T09:12:33;8.88;;;2.85;;
44137;SDS011;29800;55.942;37.314;2023-05-23T09:15:02;7.47;;;3.00;;
44137;SDS011;29800;55.942;37.314;2023-05-23T09:17:31;10.10;;;3.47;;
44137;SDS011;29800;55.942;37.314;2023-05-23T09:19:58;10.88;;;3.30;;
44137;SDS011;29800;55.942;37.314;2023-05-23T09:22:44;8.85;;;3.15;;
44137;SDS011;29800;55.942;37.314;2023-05-23T09:25:14;7.38;;;3.55;;
44137;SDS011;29800;55.942;37.314;2023-05-23T09:27:43;7.95;;;3.30;;
44137;SDS011;29800;55.942;37.314;2023-05-23T09:30:09;8.38;;;3.25;;
44137;SDS011;29800;55.942;37.314;2023-05-23T09:32:37;7.78;;;2.63;;
44137;SDS011;29800;55.942;37.314;2023-05-23T09:35:05;5.82;;;2.60;;
44137;SDS011;29800;55.942;37.314;2023-05-23T09:37:36;6.20;;;3.22;;
44137;SDS011;29800;55.942;37.314;2023-05-23T09:40:10;6.97;;;2.80;;
44137;SDS011;29800;55.942;37.314;2023-05-23T09:42:43;6.13;;;2.90;;
44137;SDS011;29800;55.942;37.314;2023-05-23T09:45:12;5.60;;;2.65;;
44137;SDS011;29800;55.942;37.314;2023-05-23T09:47:47;9.98;;;2.95;;
44137;SDS011;29800;55.942;37.314;2023-05-23T09:50:16;7.85;;;3.00;;
44137;SDS011;29800;55.942;37.314;2023-05-23T09:52:42;10.93;;;2.92;;
44137;SDS011;29800;55.942;37.314;2023-05-23T09:55:10;9.73;;;3.17;;
44137;SDS011;29800;55.942;37.314;2023-05-23T09:57:39;7.30;;;2.80;;
44137;SDS011;29800;55.942;37.314;2023-05-23T10:00:10;10.98;;;2.50;;
44137;SDS011;29800;55.942;37.314;2023-05-23T10:03:04;14.55;;;3.25;;
44137;SDS011;29800;55.942;37.314;2023-05-23T10:05:40;8.23;;;2.60;;
44137;SDS011;29800;55.942;37.314;2023-05-23T10:08:20;4.75;;;2.28;;
44137;SDS011;29800;55.942;37.314;2023-05-23T10:13:25;6.35;;;2.80;;
44137;SDS011;29800;55.942;37.314;2023-05-23T10:15:54;9.73;;;2.50;;
44137;SDS011;29800;55.942;37.314;2023-05-23T10:18:30;6.90;;;2.50;;
44137;SDS011;29800;55.942;37.314;2023-05-23T10:21:08;5.75;;;2.47;;
44137;SDS011;29800;55.942;37.314;2023-05-23T10:23:37;5.93;;;2.45;;
44137;SDS011;29800;55.942;37.314;2023-05-23T10:26:04;7.53;;;2.90;;
44137;SDS011;29800;55.942;37.314;2023-05-23T10:28:31;8.07;;;2.80;;
44137;SDS011;29800;55.942;37.314;2023-05-23T10:30:58;5.80;;;2.25;;
44137;SDS011;29800;55.942;37.314;2023-05-23T10:33:25;8.77;;;2.20;;
44137;SDS011;29800;55.942;37.314;2023-05-23T10:36:03;9.48;;;2.20;;
44137;SDS011;29800;55.942;37.314;2023-05-23T10:38:37;8.00;;;2.53;;
44137;SDS011;29800;55.942;37.314;2023-05-23T10:41:22;5.43;;;2.53;;
44137;SDS011;29800;55.942;37.314;2023-05-23T10:52:17;8.05;;;2.50;;
44137;SDS011;29800;55.942;37.314;2023-05-23T10:54:45;7.43;;;2.95;;
44137;SDS011;29800;55.942;37.314;2023-05-23T10:57:16;8.50;;;2.65;;
44137;SDS011;29800;55.942;37.314;2023-05-23T10:59:44;5.45;;;2.95;;
44137;SDS011;29800;55.942;37.314;2023-05-23T11:02:15;5.93;;;2.88;;
44137;SDS011;29800;55.942;37.314;2023-05-23T11:04:43;8.27;;;2.85;;
44137;SDS011;29800;55.942;37.314;2023-05-23T11:07:29;7.53;;;3.00;;
44137;SDS011;29800;55.942;37.314;2023-05-23T11:10:09;7.88;;;3.15;;
44137;SDS011;29800;55.942;37.314;2023-05-23T11:12:39;5.82;;;2.70;;
44137;SDS011;29800;55.942;37.314;2023-05-23T11:17:52;10.60;;;3.05;;
44137;SDS011;29800;55.942;37.314;2023-05-23T11:20:20;8.32;;;3.67;;
44137;SDS011;29800;55.942;37.314;2023-05-23T11:22:52;7.20;;;3.70;;
44137;SDS011;29800;55.942;37.314;2023-05-23T11:25:20;9.98;;;3.55;;
44137;SDS011;29800;55.942;37.314;2023-05-23T11:28:05;6.80;;;3.85;;
44137;SDS011;29800;55.942;37.314;2023-05-23T11:30:32;7.90;;;3.50;;
44137;SDS011;29800;55.942;37.314;2023-05-23T11:33:05;9.02;;;3.40;;
44137;SDS011;29800;55.942;37.314;2023-05-23T11:35:42;8.75;;;4.32;;
44137;SDS011;29800;55.942;37.314;2023-05-23T11:38:13;7.77;;;3.00;;
44137;SDS011;29800;55.942;37.314;2023-05-23T11:40:41;7.60;;;3.85;;
44137;SDS011;29800;55.942;37.314;2023-05-23T11:43:09;7.13;;;4.30;;
44137;SDS011;29800;55.942;37.314;2023-05-23T11:45:38;12.82;;;4.90;;
44137;SDS011;29800;55.942;37.314;2023-05-23T11:48:06;11.65;;;4.50;;
44137;SDS011;29800;55.942;37.314;2023-05-23T11:50:55;11.73;;;5.63;;
44137;SDS011;29800;55.942;37.314;2023-05-23T11:53:22;12.77;;;5.18;;
44137;SDS011;29800;55.942;37.314;2023-05-23T11:55:50;11.80;;;4.57;;
44137;SDS011;29800;55.942;37.314;2023-05-23T11:58:19;17.65;;;5.75;;
44137;SDS011;29800;55.942;37.314;2023-05-23T12:01:08;12.45;;;5.55;;
44137;SDS011;29800;55.942;37.314;2023-05-23T12:03:45;8.95;;;5.05;;
44137;SDS011;29800;55.942;37.314;2023-05-23T12:06:17;9.40;;;5.40;;
44137;SDS011;29800;55.942;37.314;2023-05-23T12:08:45;10.57;;;5.45;;
44137;SDS011;29800;55.942;37.314;2023-05-23T12:11:12;10.90;;;5.55;;
44137;SDS011;29800;55.942;37.314;2023-05-23T12:13:39;12.02;;;5.85;;
44137;SDS011;29800;55.942;37.314;2023-05-23T12:16:07;12.55;;;5.60;;
44137;SDS011;29800;55.942;37.314;2023-05-23T12:18:33;12.05;;;5.85;;
44137;SDS011;29800;55.942;37.314;2023-05-23T12:21:03;10.90;;;5.63;;
44137;SDS011;29800;55.942;37.314;2023-05-23T12:23:33;9.48;;;6.00;;
44137;SDS011;29800;55.942;37.314;2023-05-23T12:26:02;11.77;;;6.97;;
44137;SDS011;29800;55.942;37.314;2023-05-23T12:28:35;12.38;;;7.13;;
44137;SDS011;29800;55.942;37.314;2023-05-23T12:31:15;10.27;;;6.85;;
44137;SDS011;29800;55.942;37.314;2023-05-23T12:33:46;12.80;;;7.38;;
44137;SDS011;29800;55.942;37.314;2023-05-23T12:36:14;9.90;;;6.63;;
44137;SDS011;29800;55.942;37.314;2023-05-23T12:38:46;14.50;;;8.35;;
44137;SDS011;29800;55.942;37.314;2023-05-23T12:41:16;14.15;;;8.30;;
44137;SDS011;29800;55.942;37.314;2023-05-23T12:43:52;11.63;;;8.68;;
44137;SDS011;29800;55.942;37.314;2023-05-23T12:46:21;12.43;;;8.38;;
44137;SDS011;29800;55.942;37.314;2023-05-23T12:48:48;14.77;;;8.20;;
44137;SDS011;29800;55.942;37.314;2023-05-23T12:51:15;10.85;;;7.88;;
44137;SDS011;29800;55.942;37.314;2023-05-23T12:53:42;16.83;;;8.15;;
44137;SDS011;29800;55.942;37.314;2023-05-23T12:56:09;15.15;;;7.97;;
44137;SDS011;29800;55.942;37.314;2023-05-23T12:58:36;14.00;;;8.30;;
44137;SDS011;29800;55.942;37.314;2023-05-23T13:01:02;12.85;;;8.00;;
44137;SDS011;29800;55.942;37.314;2023-05-23T13:03:29;15.73;;;8.27;;
44137;SDS011;29800;55.942;37.314;2023-05-23T13:05:56;15.40;;;8.25;;
44137;SDS011;29800;55.942;37.314;2023-05-23T13:08:23;12.35;;;8.27;;
44137;SDS011;29800;55.942;37.314;2023-05-23T13:10:52;12.90;;;8.55;;
44137;SDS011;29800;55.942;37.314;2023-05-23T13:13:18;14.45;;;8.73;;
44137;SDS011;29800;55.942;37.314;2023-05-23T13:15:44;13.80;;;9.02;;
44137;SDS011;29800;55.942;37.314;2023-05-23T13:18:11;13.73;;;8.75;;
44137;SDS011;29800;55.942;37.314;2023-05-23T13:20:37;11.82;;;7.07;;
44137;SDS011;29800;55.942;37.314;2023-05-23T13:23:04;13.80;;;8.50;;
44137;SDS011;29800;55.942;37.314;2023-05-23T13:25:31;16.38;;;10.02;;
44137;SDS011;29800;55.942;37.314;2023-05-23T13:27:57;14.30;;;10.18;;
44137;SDS011;29800;55.942;37.314;2023-05-23T13:30:23;14.38;;;9.45;;
44137;SDS011;29800;55.942;37.314;2023-05-23T13:32:50;15.15;;;10.10;;
44137;SDS011;29800;55.942;37.314;2023-05-23T13:35:16;13.93;;;10.35;;
44137;SDS011;29800;55.942;37.314;2023-05-23T13:37:42;12.80;;;9.85;;
44137;SDS011;29800;55.942;37.314;2023-05-23T13:40:11;15.32;;;9.52;;
44137;SDS011;29800;55.942;37.314;2023-05-23T13:42:43;11.85;;;9.77;;
44137;SDS011;29800;55.942;37.314;2023-05-23T13:45:09;13.55;;;10.10;;
44137;SDS011;29800;55.942;37.314;2023-05-23T13:47:36;14.00;;;9.15;;
44137;SDS011;29800;55.942;37.314;2023-05-23T13:50:03;15.07;;;10.52;;
44137;SDS011;29800;55.942;37.314;2023-05-23T13:52:30;13.85;;;10.13;;
44137;SDS011;29800;55.942;37.314;2023-05-23T13:54:56;15.48;;;10.07;;
44137;SDS011;29800;55.942;37.314;2023-05-23T13:57:24;15.23;;;9.57;;
44137;SDS011;29800;55.942;37.314;2023-05-23T13:59:50;14.63;;;9.98;;
44137;SDS011;29800;55.942;37.314;2023-05-23T14:02:17;18.40;;;9.93;;
44137;SDS011;29800;55.942;37.314;2023-05-23T14:04:43;12.13;;;9.20;;
44137;SDS011;29800;55.942;37.314;2023-05-23T14:07:09;15.32;;;9.00;;
44137;SDS011;29800;55.942;37.314;2023-05-23T14:09:36;14.93;;;9.80;;
44137;SDS011;29800;55.942;37.314;2023-05-23T14:12:02;16.30;;;9.55;;
44137;SDS011;29800;55.942;37.314;2023-05-23T14:14:29;12.23;;;8.52;;
44137;SDS011;29800;55.942;37.314;2023-05-23T14:16:56;13.18;;;9.23;;
44137;SDS011;29800;55.942;37.314;2023-05-23T14:19:23;16.23;;;9.00;;
44137;SDS011;29800;55.942;37.314;2023-05-23T14:21:49;12.98;;;9.25;;
44137;SDS011;29800;55.942;37.314;2023-05-23T14:24:15;19.80;;;9.13;;
44137;SDS011;29800;55.942;37.314;2023-05-23T14:26:42;13.23;;;8.35;;
44137;SDS011;29800;55.942;37.314;2023-05-23T14:29:08;22.17;;;14.85;;
44137;SDS011;29800;55.942;37.314;2023-05-23T14:31:34;24.65;;;17.80;;
44137;SDS011;29800;55.942;37.314;2023-05-23T14:34:01;30.00;;;17.80;;
44137;SDS011;29800;55.942;37.314;2023-05-23T14:36:27;17.52;;;9.20;;
44137;SDS011;29800;55.942;37.314;2023-05-23T14:38:53;18.17;;;10.50;;
44137;SDS011;29800;55.942;37.314;2023-05-23T14:41:20;19.48;;;9.05;;
44137;SDS011;29800;55.942;37.314;2023-05-23T14:43:47;14.25;;;8.95;;
44137;SDS011;29800;55.942;37.314;2023-05-23T14:46:13;12.30;;;8.45;;
44137;SDS011;29800;55.942;37.314;2023-05-23T14:48:41;11.48;;;8.73;;
44137;SDS011;29800;55.942;37.314;2023-05-23T14:51:08;11.88;;;8.07;;
44137;SDS011;29800;55.942;37.314;2023-05-23T14:53:34;10.73;;;8.00;;
44137;SDS011;29800;55.942;37.314;2023-05-23T14:56:01;13.82;;;8.40;;
44137;SDS011;29800;55.942;37.314;2023-05-23T14:58:27;13.75;;;8.20;;
44137;SDS011;29800;55.942;37.314;2023-05-23T15:00:55;14.32;;;8.50;;